createdAt,value
2023-07-14T00:01:27.903Z,13.78
2023-07-14T00:03:57.422Z,13.73
2023-07-14T00:06:26.136Z,13.76
2023-07-14T00:08:54.906Z,13.68
2023-07-14T00:11:24.840Z,13.73
2023-07-14T00:13:54.827Z,13.73
2023-07-14T00:16:26.538Z,13.75
2023-07-14T00:18:55.368Z,13.65
2023-07-14T00:21:26.118Z,13.64
2023-07-14T00:23:56.502Z,13.66
2023-07-14T00:26:25.259Z,13.60
2023-07-14T00:28:54.287Z,13.62
2023-07-14T00:31:24.555Z,13.58
2023-07-14T00:33:55.204Z,13.43
2023-07-14T00:36:25.257Z,13.46
2023-07-14T00:38:54.979Z,13.45
2023-07-14T00:41:25.675Z,13.43
2023-07-14T00:43:54.380Z,13.28
2023-07-14T00:46:30.768Z,13.31
2023-07-14T00:49:08.634Z,13.32
2023-07-14T00:51:37.949Z,13.29
2023-07-14T00:54:08.883Z,13.21
2023-07-14T00:56:40.003Z,13.13
2023-07-14T00:59:12.916Z,13.13
2023-07-14T01:01:59.736Z,13.15
2023-07-14T01:04:28.568Z,13.14
2023-07-14T01:06:57.354Z,13.14
2023-07-14T01:09:26.163Z,13.10
2023-07-14T01:11:55.988Z,13.07
2023-07-14T01:14:27.284Z,13.03
2023-07-14T01:16:57.283Z,12.99
2023-07-14T01:19:27.521Z,13.00
2023-07-14T01:22:00.720Z,12.96
2023-07-14T01:24:33.385Z,12.96
2023-07-14T01:27:03.634Z,13.21
2023-07-14T01:29:33.354Z,13.27
2023-07-14T01:32:03.298Z,13.23
2023-07-14T01:34:32.067Z,13.22
2023-07-14T01:37:00.965Z,13.23
2023-07-14T01:39:30.247Z,13.19
2023-07-14T01:42:00.829Z,13.21
2023-07-14T01:44:29.615Z,13.19
2023-07-14T01:46:58.978Z,13.18
2023-07-14T01:49:42.436Z,13.41
2023-07-14T01:52:12.678Z,13.26
2023-07-14T01:54:42.928Z,13.20
2023-07-14T01:57:13.884Z,13.15
2023-07-14T01:59:44.315Z,13.08
2023-07-14T02:02:14.640Z,13.21
2023-07-14T02:04:43.786Z,13.16
2023-07-14T02:07:14.058Z,13.22
2023-07-14T02:09:43.700Z,13.31
2023-07-14T02:12:21.182Z,13.12
2023-07-14T02:14:51.450Z,13.13
2023-07-14T02:17:32.179Z,13.30
2023-07-14T02:20:04.329Z,13.20
2023-07-14T02:22:33.886Z,13.00
2023-07-14T02:25:06.215Z,13.03
2023-07-14T02:27:35.213Z,13.00
2023-07-14T02:30:05.452Z,13.08
2023-07-14T02:32:35.783Z,13.21
2023-07-14T02:35:06.649Z,13.13
2023-07-14T02:37:56.707Z,13.11
2023-07-14T02:40:25.523Z,13.14
2023-07-14T02:42:54.271Z,13.03
2023-07-14T02:45:24.394Z,13.07
2023-07-14T02:47:54.920Z,13.09
2023-07-14T02:50:24.308Z,13.37
2023-07-14T02:52:53.053Z,13.23
2023-07-14T02:55:21.996Z,13.22
2023-07-14T02:57:50.752Z,13.16
2023-07-14T03:00:20.250Z,13.14
2023-07-14T03:02:49.452Z,13.16
2023-07-14T03:05:19.179Z,13.10
2023-07-14T03:07:47.928Z,13.22
2023-07-14T03:10:16.737Z,13.17
2023-07-14T03:12:46.484Z,13.20
2023-07-14T03:15:16.734Z,13.23
2023-07-14T03:17:45.696Z,13.24
2023-07-14T03:20:15.155Z,13.28
2023-07-14T03:22:44.582Z,13.30
2023-07-14T03:25:13.484Z,13.32
2023-07-14T03:27:42.373Z,13.31
2023-07-14T03:30:11.546Z,13.35
2023-07-14T03:32:40.378Z,13.37
2023-07-14T03:35:09.788Z,13.29
2023-07-14T03:37:38.658Z,13.47
2023-07-14T03:40:07.721Z,13.43
2023-07-14T03:42:36.644Z,13.40
2023-07-14T03:45:05.568Z,13.51
2023-07-14T03:47:34.564Z,13.56
2023-07-14T03:50:03.333Z,13.48
2023-07-14T03:52:32.097Z,13.61
2023-07-14T03:55:00.915Z,13.57
2023-07-14T03:57:29.684Z,13.77
2023-07-14T03:59:58.498Z,13.73
2023-07-14T04:02:27.296Z,13.78
2023-07-14T04:04:56.121Z,13.76
2023-07-14T04:07:24.972Z,13.93
2023-07-14T04:09:53.806Z,14.00
2023-07-14T04:12:22.570Z,14.13
2023-07-14T04:14:51.324Z,14.22
2023-07-14T04:17:20.075Z,14.36
2023-07-14T04:19:48.821Z,14.42
2023-07-14T04:22:17.975Z,14.56
2023-07-14T04:24:47.455Z,14.61
2023-07-14T04:27:16.966Z,14.81
2023-07-14T04:29:45.797Z,14.91
2023-07-14T04:32:14.619Z,15.10
2023-07-14T04:34:43.582Z,15.01
2023-07-14T04:37:12.382Z,15.16
2023-07-14T04:39:41.142Z,15.42
2023-07-14T04:42:09.894Z,15.40
2023-07-14T04:44:38.740Z,15.52
2023-07-14T04:47:07.994Z,15.70
2023-07-14T04:49:36.870Z,15.82
2023-07-14T04:52:05.741Z,16.14
2023-07-14T04:54:36.327Z,16.23
2023-07-14T04:57:05.318Z,16.60
2023-07-14T04:59:37.814Z,16.94
2023-07-14T05:02:06.812Z,17.02
2023-07-14T05:04:42.853Z,16.98
2023-07-14T05:07:08.229Z,17.24
2023-07-14T05:09:37.047Z,17.23
2023-07-14T05:12:07.658Z,17.54
2023-07-14T05:14:36.394Z,17.61
2023-07-14T05:17:05.548Z,17.76
2023-07-14T05:19:34.375Z,17.97
2023-07-14T05:22:04.084Z,17.85
2023-07-14T05:24:32.814Z,18.13
2023-07-14T05:27:01.618Z,18.45
2023-07-14T05:29:30.364Z,18.76
2023-07-14T05:31:59.107Z,18.70
2023-07-14T05:34:27.829Z,18.76
2023-07-14T05:36:56.659Z,18.70
2023-07-14T05:39:26.934Z,19.08
2023-07-14T05:41:57.299Z,18.91
2023-07-14T05:44:27.678Z,19.07
2023-07-14T05:46:56.477Z,19.23
2023-07-14T05:49:25.340Z,18.99
2023-07-14T05:51:54.257Z,18.99
2023-07-14T05:54:23.377Z,18.98
2023-07-14T05:56:52.573Z,18.79
2023-07-14T05:59:21.403Z,18.78
2023-07-14T06:01:52.979Z,18.72
2023-07-14T06:04:21.733Z,19.21
2023-07-14T06:06:51.058Z,19.75
2023-07-14T06:09:19.798Z,19.58
2023-07-14T06:11:48.550Z,19.52
2023-07-14T06:14:17.282Z,19.14
2023-07-14T06:16:46.030Z,19.20
2023-07-14T06:19:14.874Z,19.36
2023-07-14T06:21:43.856Z,19.35
2023-07-14T06:24:12.629Z,19.43
2023-07-14T06:26:41.401Z,19.61
2023-07-14T06:29:10.148Z,19.68
2023-07-14T06:31:38.881Z,19.70
2023-07-14T06:34:07.686Z,19.64
2023-07-14T06:36:36.718Z,19.62
2023-07-14T06:39:05.456Z,20.00
2023-07-14T06:41:34.473Z,20.10
2023-07-14T06:44:19.617Z,20.11
2023-07-14T06:46:34.254Z,20.12
2023-07-14T06:49:19.132Z,19.94
2023-07-14T06:51:35.294Z,19.78
2023-07-14T06:54:05.062Z,20.20
2023-07-14T06:56:34.740Z,20.27
2023-07-14T06:59:03.476Z,20.32
2023-07-14T07:01:32.245Z,20.28
2023-07-14T07:04:01.005Z,20.38
2023-07-14T07:06:34.548Z,20.51
2023-07-14T07:09:04.718Z,20.50
2023-07-14T07:11:33.844Z,20.33
2023-07-14T07:14:03.337Z,20.19
2023-07-14T07:16:32.116Z,20.07
2023-07-14T07:19:01.256Z,19.96
2023-07-14T07:21:30.070Z,19.92
2023-07-14T07:23:58.852Z,19.85
2023-07-14T07:26:27.784Z,19.92
2023-07-14T07:28:56.606Z,19.84
2023-07-14T07:31:25.471Z,19.82
2023-07-14T07:33:54.376Z,19.94
2023-07-14T07:36:24.819Z,19.70
2023-07-14T07:38:53.925Z,19.53
2023-07-14T07:41:24.198Z,19.71
2023-07-14T07:43:53.414Z,19.87
2023-07-14T07:46:23.028Z,20.03
2023-07-14T07:48:51.968Z,20.15
2023-07-14T07:51:21.054Z,20.18
2023-07-14T07:53:49.801Z,20.24
2023-07-14T07:56:18.680Z,20.48
2023-07-14T07:58:47.434Z,20.60
2023-07-14T08:01:17.749Z,20.62
2023-07-14T08:03:46.806Z,20.72
2023-07-14T08:06:16.253Z,20.91
2023-07-14T08:08:45.820Z,21.16
2023-07-14T08:11:15.222Z,20.99
2023-07-14T08:13:43.986Z,20.98
2023-07-14T08:16:13.195Z,20.99
2023-07-14T08:18:42.260Z,21.25
2023-07-14T08:21:11.573Z,21.27
2023-07-14T08:23:41.912Z,21.13
2023-07-14T08:26:10.677Z,20.86
2023-07-14T08:28:42.573Z,20.97
2023-07-14T08:31:11.306Z,20.89
2023-07-14T08:33:41.751Z,20.80
2023-07-14T08:36:14.662Z,20.81
2023-07-14T08:38:43.745Z,20.77
2023-07-14T08:41:32.107Z,20.36
2023-07-14T08:44:02.356Z,20.29
2023-07-14T08:46:42.616Z,20.38
2023-07-14T08:49:18.754Z,20.50
2023-07-14T08:51:47.721Z,20.55
2023-07-14T08:54:17.974Z,20.77
2023-07-14T08:56:47.450Z,20.79
2023-07-14T08:59:17.743Z,20.38
2023-07-14T09:01:56.171Z,21.20
2023-07-14T09:04:26.486Z,21.79
2023-07-14T09:06:55.575Z,21.41
2023-07-14T09:09:34.903Z,22.08
2023-07-14T09:12:20.067Z,22.74
2023-07-14T09:14:53.369Z,23.57
2023-07-14T09:17:33.408Z,24.15
2023-07-14T09:20:22.693Z,24.58
2023-07-14T09:22:58.329Z,23.79
2023-07-14T09:25:33.921Z,23.77
2023-07-14T09:28:03.272Z,22.96
2023-07-14T09:30:34.725Z,23.09
2023-07-14T09:33:04.714Z,23.52
2023-07-14T09:35:33.513Z,23.81
2023-07-14T09:38:07.721Z,23.71
2023-07-14T09:40:37.877Z,24.12
2023-07-14T09:43:07.310Z,24.42
2023-07-14T09:45:37.437Z,24.34
2023-07-14T09:48:07.741Z,24.59
2023-07-14T09:50:40.964Z,24.73
2023-07-14T09:53:10.691Z,24.88
2023-07-14T09:55:46.969Z,24.91
2023-07-14T09:58:17.105Z,25.08
2023-07-14T10:00:47.459Z,25.32
2023-07-14T10:03:22.792Z,25.69
2023-07-14T10:05:50.019Z,24.69
2023-07-14T10:08:27.107Z,25.54
2023-07-14T10:11:03.416Z,26.10
2023-07-14T10:13:34.248Z,26.39
2023-07-14T10:16:04.866Z,26.76
2023-07-14T10:18:35.210Z,26.74
2023-07-14T10:21:07.363Z,26.10
2023-07-14T10:23:37.241Z,26.16
2023-07-14T10:26:08.399Z,26.28
2023-07-14T10:28:38.757Z,26.79
2023-07-14T10:31:15.390Z,26.94
2023-07-14T10:33:47.884Z,26.91
2023-07-14T10:36:24.952Z,27.04
2023-07-14T10:38:55.568Z,26.76
2023-07-14T10:41:26.077Z,26.82
2023-07-14T10:44:01.051Z,26.56
2023-07-14T10:46:31.309Z,26.44
2023-07-14T10:49:01.570Z,26.40
2023-07-14T10:51:33.724Z,26.91
2023-07-14T10:54:07.781Z,27.20
2023-07-14T10:56:38.216Z,27.08
2023-07-14T10:59:14.139Z,27.52
2023-07-14T11:01:51.262Z,27.62
2023-07-14T11:04:21.574Z,27.48
2023-07-14T11:06:52.713Z,27.10
2023-07-14T11:09:21.545Z,27.58
2023-07-14T11:12:08.123Z,27.68
2023-07-14T11:14:47.316Z,27.54
2023-07-14T11:17:26.808Z,27.31
2023-07-14T11:19:59.836Z,26.84
2023-07-14T11:22:34.403Z,26.83
2023-07-14T11:25:06.549Z,27.62
2023-07-14T11:27:39.536Z,27.94
2023-07-14T11:30:15.895Z,28.01
2023-07-14T11:32:50.534Z,27.43
2023-07-14T11:35:21.005Z,27.58
2023-07-14T11:37:51.278Z,27.94
2023-07-14T11:40:24.309Z,27.14
2023-07-14T11:42:54.628Z,27.40
2023-07-14T11:45:24.899Z,27.19
2023-07-14T11:47:54.143Z,28.05
2023-07-14T11:50:39.748Z,27.89
2023-07-14T11:53:10.820Z,27.90
2023-07-14T11:55:41.548Z,27.85
2023-07-14T11:58:20.802Z,28.07
2023-07-14T12:00:51.059Z,28.32
2023-07-14T12:03:32.691Z,27.81
2023-07-14T12:05:53.166Z,28.19
2023-07-14T12:08:25.375Z,27.75
2023-07-14T12:10:55.651Z,27.59
2023-07-14T12:13:25.930Z,26.93
2023-07-14T12:15:58.300Z,27.50
2023-07-14T12:18:35.312Z,28.14
2023-07-14T12:21:05.552Z,28.23
2023-07-14T12:23:36.657Z,28.39
2023-07-14T12:26:07.828Z,28.28
2023-07-14T12:28:38.165Z,28.24
2023-07-14T12:31:08.404Z,27.83
2023-07-14T12:33:37.209Z,28.55
2023-07-14T12:36:06.138Z,27.58
2023-07-14T12:38:35.008Z,28.66
2023-07-14T12:41:05.401Z,28.82
2023-07-14T12:43:44.873Z,28.80
2023-07-14T12:46:15.178Z,28.96
2023-07-14T12:48:44.374Z,28.78
2023-07-14T12:51:19.315Z,28.95
2023-07-14T12:54:01.930Z,28.55
2023-07-14T12:56:31.818Z,29.08
2023-07-14T12:59:01.375Z,28.53
2023-07-14T13:01:35.523Z,28.20
2023-07-14T13:04:05.244Z,28.44
2023-07-14T13:06:35.912Z,27.56
2023-07-14T13:09:12.312Z,27.11
2023-07-14T13:11:42.644Z,27.43
2023-07-14T13:14:13.019Z,28.09
2023-07-14T13:16:45.294Z,27.35
2023-07-14T13:19:24.627Z,27.27
2023-07-14T13:21:53.557Z,26.49
2023-07-14T13:24:26.974Z,26.77
2023-07-14T13:26:58.709Z,27.23
2023-07-14T13:29:29.075Z,28.20
2023-07-14T13:31:59.596Z,27.57
2023-07-14T13:34:32.499Z,28.57
2023-07-14T13:37:09.924Z,28.96
2023-07-14T13:39:44.810Z,28.30
2023-07-14T13:42:24.926Z,28.08
2023-07-14T13:44:56.986Z,28.16
2023-07-14T13:47:28.871Z,27.94
2023-07-14T13:50:00.270Z,27.85
2023-07-14T13:52:31.520Z,27.54
2023-07-14T13:55:05.100Z,27.70
2023-07-14T13:57:33.916Z,26.79
2023-07-14T14:00:03.670Z,27.35
2023-07-14T14:02:38.412Z,27.47
2023-07-14T14:05:12.145Z,28.15
2023-07-14T14:07:41.002Z,28.09
2023-07-14T14:10:13.813Z,27.96
2023-07-14T14:12:45.072Z,27.99
2023-07-14T14:15:18.400Z,27.99
2023-07-14T14:17:49.327Z,27.89
2023-07-14T14:20:19.797Z,28.13
2023-07-14T14:22:49.250Z,27.61
2023-07-14T14:25:19.733Z,27.82
2023-07-14T14:27:50.065Z,27.76
2023-07-14T14:30:19.598Z,27.90
2023-07-14T14:32:49.810Z,27.91
2023-07-14T14:35:22.971Z,27.87
2023-07-14T14:37:53.395Z,27.48
2023-07-14T14:40:22.175Z,27.60
2023-07-14T14:42:51.017Z,27.62
2023-07-14T14:45:21.438Z,27.43
2023-07-14T14:47:51.841Z,27.61
2023-07-14T14:50:22.529Z,27.15
2023-07-14T14:52:51.405Z,27.18
2023-07-14T14:55:21.994Z,27.06
2023-07-14T14:57:52.263Z,27.40
2023-07-14T15:00:23.138Z,27.53
2023-07-14T15:02:52.516Z,27.15
2023-07-14T15:05:22.211Z,27.82
2023-07-14T15:07:51.949Z,27.48
2023-07-14T15:10:21.880Z,27.24
2023-07-14T15:12:51.565Z,27.53
2023-07-14T15:15:38.147Z,27.91
2023-07-14T15:18:08.933Z,27.95
2023-07-14T15:20:40.585Z,28.29
2023-07-14T15:23:15.978Z,27.95
2023-07-14T15:25:48.641Z,28.43
2023-07-14T15:28:18.955Z,28.16
2023-07-14T15:30:51.224Z,27.90
2023-07-14T15:33:20.728Z,27.77
2023-07-14T15:35:57.811Z,27.45
2023-07-14T15:38:23.672Z,27.18
2023-07-14T15:40:52.650Z,27.55
2023-07-14T15:43:24.654Z,27.84
2023-07-14T15:45:58.845Z,27.89
2023-07-14T15:48:41.931Z,27.91
2023-07-14T15:51:19.226Z,27.81
2023-07-14T15:53:48.053Z,27.98
2023-07-14T15:56:17.944Z,27.93
2023-07-14T15:58:46.766Z,28.08
2023-07-14T16:01:28.241Z,28.07
2023-07-14T16:03:48.263Z,28.05
2023-07-14T16:06:17.765Z,28.08
2023-07-14T16:08:49.123Z,27.91
2023-07-14T16:11:22.341Z,27.55
2023-07-14T16:13:52.060Z,27.74
2023-07-14T16:16:21.282Z,27.86
2023-07-14T16:18:50.231Z,27.81
2023-07-14T16:21:26.805Z,27.90
2023-07-14T16:23:56.494Z,27.95
2023-07-14T16:26:25.685Z,27.70
2023-07-14T16:28:55.513Z,27.44
2023-07-14T16:31:26.178Z,27.66
2023-07-14T16:33:55.012Z,27.10
2023-07-14T16:36:27.906Z,27.34
2023-07-14T16:38:58.142Z,27.41
2023-07-14T16:41:27.283Z,26.49
2023-07-14T16:43:57.284Z,26.24
2023-07-14T16:46:27.562Z,26.84
2023-07-14T16:48:56.375Z,26.82
2023-07-14T16:51:27.148Z,26.95
2023-07-14T16:54:00.269Z,26.97
2023-07-14T16:56:29.290Z,27.07
2023-07-14T16:58:58.332Z,26.45
2023-07-14T17:01:27.541Z,26.80
2023-07-14T17:03:56.410Z,26.90
2023-07-14T17:06:42.091Z,26.73
2023-07-14T17:08:59.907Z,26.87
2023-07-14T17:11:30.275Z,26.62
2023-07-14T17:13:59.389Z,26.86
2023-07-14T17:16:28.235Z,26.86
2023-07-14T17:18:57.050Z,26.61
2023-07-14T17:21:25.840Z,26.53
2023-07-14T17:23:57.573Z,26.49
2023-07-14T17:26:24.876Z,26.47
2023-07-14T17:28:53.630Z,26.42
2023-07-14T17:31:22.437Z,26.33
2023-07-14T17:33:51.141Z,26.29
2023-07-14T17:36:21.649Z,26.20
2023-07-14T17:38:50.564Z,26.07
2023-07-14T17:41:19.340Z,26.01
2023-07-14T17:43:48.072Z,26.09
2023-07-14T17:46:17.365Z,26.06
2023-07-14T17:48:46.203Z,25.92
2023-07-14T17:51:15.054Z,25.76
2023-07-14T17:53:43.770Z,25.71
2023-07-14T17:56:13.436Z,25.58
2023-07-14T17:58:42.314Z,25.48
2023-07-14T18:01:12.606Z,25.31
2023-07-14T18:03:46.500Z,25.18
2023-07-14T18:06:16.857Z,24.98
2023-07-14T18:08:45.606Z,24.77
2023-07-14T18:11:16.284Z,24.62
2023-07-14T18:13:45.322Z,24.54
2023-07-14T18:16:14.350Z,24.35
2023-07-14T18:18:44.574Z,24.18
2023-07-14T18:21:13.853Z,24.05
2023-07-14T18:23:43.013Z,23.88
2023-07-14T18:26:13.289Z,23.71
2023-07-14T18:28:42.621Z,23.51
2023-07-14T18:31:17.379Z,23.48
2023-07-14T18:33:48.066Z,23.39
2023-07-14T18:36:16.818Z,23.28
2023-07-14T18:38:45.595Z,23.17
2023-07-14T18:41:16.247Z,22.98
2023-07-14T18:43:45.191Z,22.84
2023-07-14T18:46:14.436Z,22.68
2023-07-14T18:48:43.178Z,22.54
2023-07-14T18:51:14.205Z,22.38
2023-07-14T18:53:43.148Z,22.29
2023-07-14T18:56:12.409Z,22.12
2023-07-14T18:58:41.377Z,21.90
2023-07-14T19:01:15.915Z,21.84
2023-07-14T19:03:47.609Z,21.60
2023-07-14T19:06:18.411Z,21.52
2023-07-14T19:08:47.149Z,21.41
2023-07-14T19:11:17.459Z,21.20
2023-07-14T19:13:46.936Z,21.12
2023-07-14T19:16:19.594Z,21.02
2023-07-14T19:18:48.534Z,20.92
2023-07-14T19:21:18.988Z,20.78
2023-07-14T19:23:47.749Z,20.66
2023-07-14T19:26:16.734Z,20.55
2023-07-14T19:28:47.244Z,20.44
2023-07-14T19:31:21.777Z,20.30
2023-07-14T19:33:51.220Z,20.17
2023-07-14T19:36:20.002Z,20.04
2023-07-14T19:38:48.758Z,19.88
2023-07-14T19:41:17.843Z,19.79
2023-07-14T19:43:48.949Z,19.66
2023-07-14T19:46:18.015Z,19.56
2023-07-14T19:48:47.021Z,19.50
2023-07-14T19:51:26.152Z,19.49
2023-07-14T19:53:55.274Z,19.42
2023-07-14T19:56:26.143Z,19.30
2023-07-14T19:58:55.464Z,19.25
2023-07-14T20:01:24.457Z,19.13
2023-07-14T20:03:53.432Z,19.07
2023-07-14T20:06:24.675Z,19.03
2023-07-14T20:08:54.739Z,18.96
2023-07-14T20:11:23.897Z,18.86
2023-07-14T20:13:52.723Z,18.75
2023-07-14T20:16:23.103Z,18.67
2023-07-14T20:18:52.968Z,18.65
2023-07-14T20:21:26.525Z,18.59
2023-07-14T20:23:56.842Z,18.53
2023-07-14T20:26:25.878Z,18.48
2023-07-14T20:28:54.647Z,18.43
2023-07-14T20:31:23.854Z,18.36
2023-07-14T20:33:56.389Z,18.33
2023-07-14T20:36:26.105Z,18.24
2023-07-14T20:38:56.699Z,18.18
2023-07-14T20:41:26.987Z,18.13
2023-07-14T20:43:55.806Z,18.07
2023-07-14T20:46:28.931Z,18.01
2023-07-14T20:49:15.175Z,17.98
2023-07-14T20:51:29.519Z,17.90
2023-07-14T20:53:58.926Z,17.87
2023-07-14T20:56:27.727Z,17.82
2023-07-14T20:58:56.486Z,17.77
2023-07-14T21:01:27.211Z,17.69
2023-07-14T21:03:55.999Z,17.63
2023-07-14T21:06:25.843Z,17.59
2023-07-14T21:08:55.536Z,17.57
2023-07-14T21:11:26.047Z,17.51
2023-07-14T21:13:56.260Z,17.41
2023-07-14T21:16:26.299Z,17.34
2023-07-14T21:18:56.296Z,17.30
2023-07-14T21:21:29.300Z,17.21
2023-07-14T21:23:59.789Z,17.17
2023-07-14T21:26:36.152Z,17.11
2023-07-14T21:29:06.612Z,17.03
2023-07-14T21:31:40.621Z,17.00
2023-07-14T21:34:16.217Z,16.95
2023-07-14T21:36:45.212Z,16.92
2023-07-14T21:39:14.917Z,16.86
2023-07-14T21:41:44.172Z,16.80
2023-07-14T21:44:14.395Z,16.79
2023-07-14T21:46:44.322Z,16.79
2023-07-14T21:49:17.289Z,16.73
2023-07-14T21:51:46.597Z,16.71
2023-07-14T21:54:17.225Z,16.61
2023-07-14T21:56:48.076Z,16.59
2023-07-14T21:59:19.608Z,16.55
2023-07-14T22:01:51.933Z,16.50
2023-07-14T22:04:21.798Z,16.49
2023-07-14T22:06:52.557Z,16.50
2023-07-14T22:09:23.197Z,16.50
2023-07-14T22:11:52.390Z,16.47
2023-07-14T22:14:22.590Z,16.43
2023-07-14T22:16:51.424Z,16.39
2023-07-14T22:19:20.255Z,16.35
2023-07-14T22:21:49.114Z,16.33
2023-07-14T22:24:20.096Z,16.29
2023-07-14T22:26:48.940Z,16.29
2023-07-14T22:29:18.564Z,16.28
2023-07-14T22:31:49.012Z,16.35
2023-07-14T22:34:20.359Z,16.33
2023-07-14T22:36:49.140Z,16.28
2023-07-14T22:39:19.874Z,16.27
2023-07-14T22:41:50.220Z,16.24
2023-07-14T22:44:19.162Z,16.24
2023-07-14T22:46:48.520Z,16.20
2023-07-14T22:49:17.337Z,16.17
2023-07-14T22:51:47.831Z,16.08
2023-07-14T22:54:17.475Z,16.06
2023-07-14T22:56:46.426Z,16.04
2023-07-14T22:59:15.168Z,16.03
2023-07-14T23:01:44.083Z,15.99
2023-07-14T23:04:13.500Z,15.96
2023-07-14T23:06:42.364Z,15.94
2023-07-14T23:09:12.288Z,15.91
2023-07-14T23:11:41.900Z,15.89
2023-07-14T23:14:12.115Z,15.85
2023-07-14T23:16:40.957Z,15.83
2023-07-14T23:19:10.617Z,15.81
2023-07-14T23:21:40.397Z,15.80
2023-07-14T23:24:10.657Z,15.75
2023-07-14T23:26:39.465Z,15.66
2023-07-14T23:29:08.296Z,15.68
2023-07-14T23:31:38.466Z,15.64
2023-07-14T23:34:13.638Z,15.61
2023-07-14T23:36:42.573Z,15.52
2023-07-14T23:39:11.364Z,15.49
2023-07-14T23:41:40.111Z,15.48
2023-07-14T23:44:10.384Z,15.46
2023-07-14T23:46:39.310Z,15.44
2023-07-14T23:49:09.775Z,15.42
2023-07-14T23:51:39.773Z,15.39
2023-07-14T23:54:09.367Z,15.35
2023-07-14T23:56:38.251Z,15.34
2023-07-14T23:59:07.119Z,15.32
